CAC9 weather

Stewart Seaplane Base
Stewart, British Columbia, Canada

Public forecast

Using degrees Celsius for public forecast. Weather courtesy of forecast.io.

METAR (pilot weather report)

Closest report is Stewart Airport, 1.3 nm (2.4 km) NNE. Retrieved 2019/07/15 17:00 UTC (12 minutes ago):

CZST 151700Z VRB02KT 10SM SCT012 BKN075 16/14 A3007 RMK SC3AC4 SLP185

TAF (pilot weather forecast)

Closest forecast is Ketchikan International Airport, 67.1 nm (124.4 km) WSW. Retrieved 2019/07/15 12:24 UTC (5 hours ago):

TAF PAKT 151121Z 1512/1612 15005KT P6SM FEW030 SCT060 TEMPO 1512/1515 OVC009 FM151500 14005KT P6SM VCSH FEW005 BKN025 OVC040 FM160000 13008KT P6SM -SHRA BKN040 OVC060 FM160900 11006KT P6SM BKN015 PROB30 1609/1612 -RA BKN007 AMD LTD TO CLD VIS AND WIND TIL 151500